sensor_id;sensor_type;location;lat;lon;timestamp;pressure;altitude;pressure_sealevel;temperature;humidity
59337;BME280;45115;52.002;4.686;2022-10-03T00:00:17;102638.44;;;7.93;100.00
59337;BME280;45115;52.002;4.686;2022-10-03T00:05:44;102644.34;;;7.89;100.00
59337;BME280;45115;52.002;4.686;2022-10-03T00:08:30;102649.00;;;7.80;100.00
59337;BME280;45115;52.002;4.686;2022-10-03T00:11:06;102647.00;;;7.75;100.00
59337;BME280;45115;52.002;4.686;2022-10-03T00:13:42;102655.31;;;7.72;100.00
59337;BME280;45115;52.002;4.686;2022-10-03T00:16:26;102647.38;;;7.65;100.00
59337;BME280;45115;52.002;4.686;2022-10-03T00:19:05;102653.09;;;7.62;100.00
59337;BME280;45115;52.002;4.686;2022-10-03T00:21:45;102655.13;;;7.53;100.00
59337;BME280;45115;52.002;4.686;2022-10-03T00:24:22;102652.84;;;7.43;100.00
59337;BME280;45115;52.002;4.686;2022-10-03T00:26:56;102666.06;;;7.43;100.00
59337;BME280;45115;52.002;4.686;2022-10-03T00:29:35;102658.53;;;7.34;100.00
59337;BME280;45115;52.002;4.686;2022-10-03T00:32:18;102661.53;;;7.24;100.00
59337;BME280;45115;52.002;4.686;2022-10-03T00:35:00;102653.00;;;7.22;100.00
59337;BME280;45115;52.002;4.686;2022-10-03T00:37:33;102656.91;;;7.33;100.00
59337;BME280;45115;52.002;4.686;2022-10-03T00:40:34;102660.16;;;7.35;100.00
59337;BME280;45115;52.002;4.686;2022-10-03T00:43:37;102660.75;;;7.30;100.00
59337;BME280;45115;52.002;4.686;2022-10-03T00:46:29;102669.47;;;7.30;100.00
59337;BME280;45115;52.002;4.686;2022-10-03T00:49:14;102673.53;;;7.33;100.00
59337;BME280;45115;52.002;4.686;2022-10-03T00:51:54;102677.63;;;7.36;100.00
59337;BME280;45115;52.002;4.686;2022-10-03T00:54:43;102685.16;;;7.52;100.00
59337;BME280;45115;52.002;4.686;2022-10-03T00:57:41;102692.47;;;7.50;100.00
59337;BME280;45115;52.002;4.686;2022-10-03T01:00:19;102693.09;;;7.46;100.00
59337;BME280;45115;52.002;4.686;2022-10-03T01:03:00;102690.25;;;7.40;100.00
59337;BME280;45115;52.002;4.686;2022-10-03T01:05:39;102697.53;;;7.38;100.00
59337;BME280;45115;52.002;4.686;2022-10-03T01:08:30;102693.66;;;7.41;100.00
59337;BME280;45115;52.002;4.686;2022-10-03T01:11:07;102699.81;;;7.48;100.00
59337;BME280;45115;52.002;4.686;2022-10-03T01:13:47;102701.63;;;7.48;100.00
59337;BME280;45115;52.002;4.686;2022-10-03T01:16:20;102687.75;;;7.32;100.00
59337;BME280;45115;52.002;4.686;2022-10-03T01:18:59;102705.22;;;7.26;100.00
59337;BME280;45115;52.002;4.686;2022-10-03T01:21:42;102699.09;;;7.19;100.00
59337;BME280;45115;52.002;4.686;2022-10-03T01:27:05;102702.56;;;7.20;100.00
59337;BME280;45115;52.002;4.686;2022-10-03T01:29:45;102704.00;;;7.29;100.00
59337;BME280;45115;52.002;4.686;2022-10-03T01:32:39;102698.50;;;7.24;100.00
59337;BME280;45115;52.002;4.686;2022-10-03T01:35:19;102696.69;;;7.24;100.00
59337;BME280;45115;52.002;4.686;2022-10-03T01:37:55;102693.00;;;7.18;100.00
59337;BME280;45115;52.002;4.686;2022-10-03T01:40:32;102691.38;;;7.17;100.00
59337;BME280;45115;52.002;4.686;2022-10-03T01:43:05;102691.16;;;7.12;100.00
59337;BME280;45115;52.002;4.686;2022-10-03T01:45:43;102692.41;;;7.16;100.00
59337;BME280;45115;52.002;4.686;2022-10-03T01:48:21;102698.94;;;7.34;100.00
59337;BME280;45115;52.002;4.686;2022-10-03T01:50:56;102705.28;;;7.60;100.00
59337;BME280;45115;52.002;4.686;2022-10-03T01:53:34;102708.16;;;7.79;100.00
59337;BME280;45115;52.002;4.686;2022-10-03T01:56:07;102706.13;;;7.67;100.00
59337;BME280;45115;52.002;4.686;2022-10-03T01:58:46;102707.72;;;7.55;100.00
59337;BME280;45115;52.002;4.686;2022-10-03T02:01:21;102699.38;;;7.44;100.00
59337;BME280;45115;52.002;4.686;2022-10-03T02:03:54;102701.00;;;7.39;100.00
59337;BME280;45115;52.002;4.686;2022-10-03T02:06:27;102711.34;;;7.34;100.00
59337;BME280;45115;52.002;4.686;2022-10-03T02:09:04;102699.94;;;7.20;100.00
59337;BME280;45115;52.002;4.686;2022-10-03T02:11:36;102715.31;;;7.16;100.00
59337;BME280;45115;52.002;4.686;2022-10-03T02:14:14;102718.75;;;7.10;100.00
59337;BME280;45115;52.002;4.686;2022-10-03T02:16:54;102706.38;;;7.10;100.00
59337;BME280;45115;52.002;4.686;2022-10-03T02:19:25;102712.09;;;7.14;100.00
59337;BME280;45115;52.002;4.686;2022-10-03T02:21:55;102717.63;;;7.33;100.00
59337;BME280;45115;52.002;4.686;2022-10-03T02:24:37;102715.63;;;7.55;100.00
59337;BME280;45115;52.002;4.686;2022-10-03T02:27:41;102708.53;;;7.69;100.00
59337;BME280;45115;52.002;4.686;2022-10-03T02:30:19;102714.84;;;7.68;100.00
59337;BME280;45115;52.002;4.686;2022-10-03T02:33:14;102704.84;;;7.50;100.00
59337;BME280;45115;52.002;4.686;2022-10-03T02:39:01;102696.69;;;7.24;100.00
59337;BME280;45115;52.002;4.686;2022-10-03T02:41:47;102700.31;;;7.16;100.00
59337;BME280;45115;52.002;4.686;2022-10-03T02:47:22;102708.38;;;7.01;100.00
59337;BME280;45115;52.002;4.686;2022-10-03T02:50:22;102707.72;;;6.93;100.00
59337;BME280;45115;52.002;4.686;2022-10-03T02:56:26;102712.34;;;6.84;100.00
59337;BME280;45115;52.002;4.686;2022-10-03T02:59:16;102716.03;;;6.89;100.00
59337;BME280;45115;52.002;4.686;2022-10-03T03:02:16;102708.69;;;6.85;100.00
59337;BME280;45115;52.002;4.686;2022-10-03T03:05:30;102712.97;;;6.86;100.00
59337;BME280;45115;52.002;4.686;2022-10-03T03:08:29;102711.34;;;6.85;100.00
59337;BME280;45115;52.002;4.686;2022-10-03T03:11:31;102705.06;;;6.86;100.00
59337;BME280;45115;52.002;4.686;2022-10-03T03:17:30;102716.97;;;6.75;100.00
59337;BME280;45115;52.002;4.686;2022-10-03T03:20:34;102716.75;;;6.70;100.00
59337;BME280;45115;52.002;4.686;2022-10-03T03:23:19;102708.59;;;6.64;100.00
59337;BME280;45115;52.002;4.686;2022-10-03T03:26:05;102715.94;;;6.69;100.00
59337;BME280;45115;52.002;4.686;2022-10-03T03:28:45;102706.38;;;6.61;100.00
59337;BME280;45115;52.002;4.686;2022-10-03T03:31:24;102715.47;;;6.59;100.00
59337;BME280;45115;52.002;4.686;2022-10-03T03:34:01;102713.41;;;6.54;100.00
59337;BME280;45115;52.002;4.686;2022-10-03T03:36:39;102708.13;;;6.54;100.00
59337;BME280;45115;52.002;4.686;2022-10-03T03:39:19;102714.06;;;6.63;100.00
59337;BME280;45115;52.002;4.686;2022-10-03T03:42:07;102723.63;;;6.64;100.00
59337;BME280;45115;52.002;4.686;2022-10-03T03:44:53;102718.72;;;6.61;100.00
59337;BME280;45115;52.002;4.686;2022-10-03T03:47:39;102721.13;;;6.56;100.00
59337;BME280;45115;52.002;4.686;2022-10-03T03:50:21;102714.59;;;6.51;100.00
59337;BME280;45115;52.002;4.686;2022-10-03T03:53:04;102729.03;;;6.56;100.00
59337;BME280;45115;52.002;4.686;2022-10-03T03:58:36;102730.63;;;6.50;100.00
59337;BME280;45115;52.002;4.686;2022-10-03T04:01:41;102723.94;;;6.54;100.00
59337;BME280;45115;52.002;4.686;2022-10-03T04:04:22;102734.69;;;6.53;100.00
59337;BME280;45115;52.002;4.686;2022-10-03T04:07:02;102720.28;;;6.48;100.00
59337;BME280;45115;52.002;4.686;2022-10-03T04:10:09;102722.31;;;6.53;100.00
59337;BME280;45115;52.002;4.686;2022-10-03T04:13:04;102729.22;;;6.54;100.00
59337;BME280;45115;52.002;4.686;2022-10-03T04:15:50;102732.75;;;6.61;100.00
59337;BME280;45115;52.002;4.686;2022-10-03T04:18:30;102733.81;;;6.74;100.00
59337;BME280;45115;52.002;4.686;2022-10-03T04:21:29;102730.72;;;7.05;100.00
59337;BME280;45115;52.002;4.686;2022-10-03T04:24:13;102726.94;;;7.22;100.00
59337;BME280;45115;52.002;4.686;2022-10-03T04:26:58;102732.69;;;7.39;100.00
59337;BME280;45115;52.002;4.686;2022-10-03T04:29:40;102732.28;;;7.49;100.00
59337;BME280;45115;52.002;4.686;2022-10-03T04:35:11;102740.28;;;7.82;100.00
59337;BME280;45115;52.002;4.686;2022-10-03T04:37:45;102744.78;;;7.95;100.00
59337;BME280;45115;52.002;4.686;2022-10-03T04:40:24;102751.50;;;8.05;100.00
59337;BME280;45115;52.002;4.686;2022-10-03T04:43:06;102748.03;;;8.11;100.00
59337;BME280;45115;52.002;4.686;2022-10-03T04:46:00;102743.34;;;8.20;100.00
59337;BME280;45115;52.002;4.686;2022-10-03T04:48:36;102747.22;;;8.31;100.00
59337;BME280;45115;52.002;4.686;2022-10-03T04:51:14;102747.00;;;8.39;100.00
59337;BME280;45115;52.002;4.686;2022-10-03T04:53:51;102746.59;;;8.42;100.00
59337;BME280;45115;52.002;4.686;2022-10-03T04:56:37;102753.72;;;8.48;100.00
59337;BME280;45115;52.002;4.686;2022-10-03T04:59:33;102755.34;;;8.49;100.00
59337;BME280;45115;52.002;4.686;2022-10-03T05:02:08;102755.75;;;8.46;100.00
59337;BME280;45115;52.002;4.686;2022-10-03T05:04:43;102755.56;;;8.41;100.00
59337;BME280;45115;52.002;4.686;2022-10-03T05:07:18;102755.97;;;8.38;100.00
59337;BME280;45115;52.002;4.686;2022-10-03T05:09:51;102753.94;;;8.27;100.00
59337;BME280;45115;52.002;4.686;2022-10-03T05:12:27;102761.66;;;8.21;100.00
59337;BME280;45115;52.002;4.686;2022-10-03T05:15:17;102765.13;;;8.22;100.00
59337;BME280;45115;52.002;4.686;2022-10-03T05:17:54;102763.69;;;8.26;100.00
59337;BME280;45115;52.002;4.686;2022-10-03T05:20:31;102754.72;;;8.34;100.00
59337;BME280;45115;52.002;4.686;2022-10-03T05:23:11;102770.84;;;8.53;100.00
59337;BME280;45115;52.002;4.686;2022-10-03T05:25:49;102765.94;;;8.63;100.00
59337;BME280;45115;52.002;4.686;2022-10-03T05:28:26;102764.69;;;8.72;100.00
59337;BME280;45115;52.002;4.686;2022-10-03T05:31:11;102765.09;;;8.83;100.00
59337;BME280;45115;52.002;4.686;2022-10-03T05:33:45;102758.97;;;8.89;100.00
59337;BME280;45115;52.002;4.686;2022-10-03T05:36:25;102766.25;;;8.94;100.00
59337;BME280;45115;52.002;4.686;2022-10-03T05:42:12;102771.13;;;9.03;100.00
59337;BME280;45115;52.002;4.686;2022-10-03T05:44:50;102769.69;;;9.08;100.00
59337;BME280;45115;52.002;4.686;2022-10-03T05:47:27;102774.13;;;9.14;100.00
59337;BME280;45115;52.002;4.686;2022-10-03T05:53:21;102778.97;;;9.30;100.00
59337;BME280;45115;52.002;4.686;2022-10-03T05:56:03;102752.50;;;9.24;100.00
59337;BME280;45115;52.002;4.686;2022-10-03T06:01:56;102771.75;;;9.51;100.00
59337;BME280;45115;52.002;4.686;2022-10-03T06:04:42;102776.56;;;9.61;100.00
59337;BME280;45115;52.002;4.686;2022-10-03T06:07:20;102781.19;;;9.73;100.00
59337;BME280;45115;52.002;4.686;2022-10-03T06:10:29;102783.81;;;9.79;100.00
59337;BME280;45115;52.002;4.686;2022-10-03T06:13:09;102775.22;;;9.84;100.00
59337;BME280;45115;52.002;4.686;2022-10-03T06:15:56;102781.28;;;9.91;100.00
59337;BME280;45115;52.002;4.686;2022-10-03T06:18:56;102782.69;;;9.94;100.00
59337;BME280;45115;52.002;4.686;2022-10-03T06:21:57;102777.78;;;9.97;100.00
59337;BME280;45115;52.002;4.686;2022-10-03T06:24:55;102777.56;;;9.99;100.00
59337;BME280;45115;52.002;4.686;2022-10-03T06:30:21;102788.50;;;10.09;100.00
59337;BME280;45115;52.002;4.686;2022-10-03T06:33:15;102792.75;;;10.17;100.00
59337;BME280;45115;52.002;4.686;2022-10-03T06:36:28;102782.91;;;10.18;100.00
59337;BME280;45115;52.002;4.686;2022-10-03T06:42:31;102796.50;;;10.28;100.00
59337;BME280;45115;52.002;4.686;2022-10-03T06:45:21;102787.19;;;10.19;100.00
59337;BME280;45115;52.002;4.686;2022-10-03T06:48:15;102794.94;;;10.20;100.00
59337;BME280;45115;52.002;4.686;2022-10-03T06:50:53;102794.56;;;10.17;100.00
59337;BME280;45115;52.002;4.686;2022-10-03T06:53:45;102776.03;;;10.10;100.00
59337;BME280;45115;52.002;4.686;2022-10-03T06:56:44;102799.38;;;10.27;100.00
59337;BME280;45115;52.002;4.686;2022-10-03T06:59:33;102799.78;;;10.30;100.00
59337;BME280;45115;52.002;4.686;2022-10-03T07:02:33;102810.19;;;10.57;100.00
59337;BME280;45115;52.002;4.686;2022-10-03T07:08:42;102804.84;;;11.51;100.00
59337;BME280;45115;52.002;4.686;2022-10-03T07:11:33;102801.56;;;11.67;100.00
59337;BME280;45115;52.002;4.686;2022-10-03T07:14:34;102830.09;;;11.91;100.00
59337;BME280;45115;52.002;4.686;2022-10-03T07:17:27;102813.97;;;11.74;100.00
59337;BME280;45115;52.002;4.686;2022-10-03T07:23:19;102823.53;;;12.05;100.00
59337;BME280;45115;52.002;4.686;2022-10-03T07:29:07;102835.16;;;12.35;100.00
59337;BME280;45115;52.002;4.686;2022-10-03T07:31:48;102839.00;;;12.51;100.00
59337;BME280;45115;52.002;4.686;2022-10-03T07:34:44;102835.50;;;12.51;100.00
59337;BME280;45115;52.002;4.686;2022-10-03T07:37:26;102837.03;;;12.46;100.00
59337;BME280;45115;52.002;4.686;2022-10-03T07:40:37;102836.09;;;12.41;100.00
59337;BME280;45115;52.002;4.686;2022-10-03T07:43:43;102854.72;;;12.41;100.00
59337;BME280;45115;52.002;4.686;2022-10-03T07:46:47;102844.53;;;12.49;100.00
59337;BME280;45115;52.002;4.686;2022-10-03T07:49:33;102837.25;;;12.45;100.00
59337;BME280;45115;52.002;4.686;2022-10-03T07:52:33;102835.06;;;12.54;100.00
59337;BME280;45115;52.002;4.686;2022-10-03T07:55:21;102842.00;;;12.67;100.00
59337;BME280;45115;52.002;4.686;2022-10-03T07:58:19;102837.03;;;12.82;100.00
59337;BME280;45115;52.002;4.686;2022-10-03T08:01:08;102847.91;;;13.05;100.00
59337;BME280;45115;52.002;4.686;2022-10-03T08:07:00;102841.22;;;13.31;100.00
59337;BME280;45115;52.002;4.686;2022-10-03T08:09:45;102851.84;;;13.43;100.00
59337;BME280;45115;52.002;4.686;2022-10-03T08:12:51;102851.84;;;13.55;100.00
59337;BME280;45115;52.002;4.686;2022-10-03T08:15:29;102855.03;;;13.69;100.00
59337;BME280;45115;52.002;4.686;2022-10-03T08:18:26;102858.38;;;13.93;100.00
59337;BME280;45115;52.002;4.686;2022-10-03T08:20:57;102858.41;;;14.11;100.00
59337;BME280;45115;52.002;4.686;2022-10-03T08:23:42;102850.56;;;14.21;100.00
59337;BME280;45115;52.002;4.686;2022-10-03T08:26:18;102849.59;;;14.27;100.00
59337;BME280;45115;52.002;4.686;2022-10-03T08:28:57;102852.19;;;14.39;100.00
59337;BME280;45115;52.002;4.686;2022-10-03T08:31:53;102841.06;;;14.65;100.00
59337;BME280;45115;52.002;4.686;2022-10-03T08:43:53;102826.75;;;15.38;100.00
59337;BME280;45115;52.002;4.686;2022-10-03T08:52:47;102833.41;;;16.18;100.00
59337;BME280;45115;52.002;4.686;2022-10-03T08:55:40;102832.72;;;16.38;100.00
59337;BME280;45115;52.002;4.686;2022-10-03T08:58:30;102831.75;;;16.55;100.00
59337;BME280;45115;52.002;4.686;2022-10-03T09:01:27;102826.09;;;16.51;100.00
59337;BME280;45115;52.002;4.686;2022-10-03T09:07:08;102823.88;;;16.00;100.00
59337;BME280;45115;52.002;4.686;2022-10-03T09:16:10;102831.50;;;16.18;100.00
59337;BME280;45115;52.002;4.686;2022-10-03T09:18:51;102820.28;;;16.22;100.00
59337;BME280;45115;52.002;4.686;2022-10-03T09:21:43;102812.00;;;16.23;100.00
59337;BME280;45115;52.002;4.686;2022-10-03T09:24:36;102818.16;;;16.67;100.00
59337;BME280;45115;52.002;4.686;2022-10-03T09:30:21;102823.28;;;17.58;100.00
59337;BME280;45115;52.002;4.686;2022-10-03T09:33:17;102821.69;;;17.73;100.00
59337;BME280;45115;52.002;4.686;2022-10-03T09:36:10;102823.03;;;17.65;100.00
59337;BME280;45115;52.002;4.686;2022-10-03T09:39:00;102820.59;;;17.48;100.00
59337;BME280;45115;52.002;4.686;2022-10-03T09:42:05;102825.94;;;17.43;100.00
59337;BME280;45115;52.002;4.686;2022-10-03T09:48:25;102819.53;;;17.38;100.00
59337;BME280;45115;52.002;4.686;2022-10-03T09:51:19;102813.63;;;17.47;100.00
59337;BME280;45115;52.002;4.686;2022-10-03T09:56:57;102819.53;;;17.64;100.00
59337;BME280;45115;52.002;4.686;2022-10-03T09:59:45;102817.41;;;17.56;100.00
59337;BME280;45115;52.002;4.686;2022-10-03T10:02:48;102807.97;;;17.43;100.00
59337;BME280;45115;52.002;4.686;2022-10-03T10:05:48;102808.53;;;17.66;100.00
59337;BME280;45115;52.002;4.686;2022-10-03T10:11:31;102816.63;;;18.08;100.00
59337;BME280;45115;52.002;4.686;2022-10-03T10:14:33;102813.91;;;18.02;100.00
59337;BME280;45115;52.002;4.686;2022-10-03T10:17:52;102812.56;;;17.89;100.00
59337;BME280;45115;52.002;4.686;2022-10-03T10:20:41;102822.78;;;17.82;100.00
59337;BME280;45115;52.002;4.686;2022-10-03T10:23:21;102820.63;;;17.74;100.00
59337;BME280;45115;52.002;4.686;2022-10-03T10:26:38;102819.53;;;17.54;100.00
59337;BME280;45115;52.002;4.686;2022-10-03T10:32:40;102826.44;;;17.19;100.00
59337;BME280;45115;52.002;4.686;2022-10-03T10:38:41;102824.91;;;16.80;100.00
59337;BME280;45115;52.002;4.686;2022-10-03T10:47:47;102812.09;;;16.92;100.00
59337;BME280;45115;52.002;4.686;2022-10-03T10:57:03;102801.03;;;17.78;100.00
59337;BME280;45115;52.002;4.686;2022-10-03T11:09:40;102809.63;;;18.06;100.00
59337;BME280;45115;52.002;4.686;2022-10-03T11:15:42;102814.44;;;18.30;100.00
59337;BME280;45115;52.002;4.686;2022-10-03T11:28:06;102806.56;;;17.09;100.00
59337;BME280;45115;52.002;4.686;2022-10-03T11:31:15;102811.09;;;17.04;100.00
59337;BME280;45115;52.002;4.686;2022-10-03T11:34:27;102809.66;;;16.91;100.00
59337;BME280;45115;52.002;4.686;2022-10-03T11:37:09;102810.44;;;16.81;100.00
59337;BME280;45115;52.002;4.686;2022-10-03T11:39:47;102792.16;;;16.72;100.00
59337;BME280;45115;52.002;4.686;2022-10-03T11:42:21;102801.34;;;16.87;100.00
59337;BME280;45115;52.002;4.686;2022-10-03T11:44:56;102809.16;;;16.94;100.00
59337;BME280;45115;52.002;4.686;2022-10-03T11:47:55;102793.34;;;16.97;100.00
59337;BME280;45115;52.002;4.686;2022-10-03T11:53:39;102807.81;;;16.96;100.00
59337;BME280;45115;52.002;4.686;2022-10-03T11:56:32;102804.84;;;16.87;100.00
59337;BME280;45115;52.002;4.686;2022-10-03T11:59:22;102802.38;;;16.76;100.00
59337;BME280;45115;52.002;4.686;2022-10-03T12:02:13;102805.84;;;16.71;100.00
59337;BME280;45115;52.002;4.686;2022-10-03T12:04:51;102787.56;;;16.57;100.00
59337;BME280;45115;52.002;4.686;2022-10-03T12:07:36;102799.66;;;16.70;100.00
59337;BME280;45115;52.002;4.686;2022-10-03T12:10:34;102791.06;;;16.63;100.00
59337;BME280;45115;52.002;4.686;2022-10-03T12:13:08;102792.97;;;16.68;100.00
59337;BME280;45115;52.002;4.686;2022-10-03T12:15:42;102794.00;;;16.62;100.00
59337;BME280;45115;52.002;4.686;2022-10-03T12:18:14;102788.34;;;16.53;100.00
59337;BME280;45115;52.002;4.686;2022-10-03T12:21:02;102778.63;;;16.36;100.00
59337;BME280;45115;52.002;4.686;2022-10-03T12:23:49;102800.56;;;16.38;100.00
59337;BME280;45115;52.002;4.686;2022-10-03T12:26:26;102795.19;;;16.33;100.00
59337;BME280;45115;52.002;4.686;2022-10-03T12:28:55;102794.88;;;16.24;100.00
59337;BME280;45115;52.002;4.686;2022-10-03T12:31:26;102790.75;;;16.11;100.00
59337;BME280;45115;52.002;4.686;2022-10-03T12:34:00;102789.94;;;16.11;100.00
59337;BME280;45115;52.002;4.686;2022-10-03T12:36:40;102787.81;;;16.07;100.00
59337;BME280;45115;52.002;4.686;2022-10-03T12:39:20;102776.78;;;16.04;100.00
59337;BME280;45115;52.002;4.686;2022-10-03T12:42:06;102773.81;;;16.00;100.00
59337;BME280;45115;52.002;4.686;2022-10-03T12:44:46;102761.50;;;15.99;100.00
59337;BME280;45115;52.002;4.686;2022-10-03T12:47:24;102778.44;;;16.10;100.00
59337;BME280;45115;52.002;4.686;2022-10-03T12:49:57;102778.41;;;16.05;100.00
59337;BME280;45115;52.002;4.686;2022-10-03T12:52:30;102777.28;;;15.96;100.00
59337;BME280;45115;52.002;4.686;2022-10-03T12:55:11;102770.78;;;15.91;100.00
59337;BME280;45115;52.002;4.686;2022-10-03T12:57:52;102769.94;;;15.86;100.00
59337;BME280;45115;52.002;4.686;2022-10-03T13:00:24;102761.31;;;15.78;100.00
59337;BME280;45115;52.002;4.686;2022-10-03T13:03:10;102773.03;;;15.72;100.00
59337;BME280;45115;52.002;4.686;2022-10-03T13:05:54;102771.69;;;15.70;100.00
59337;BME280;45115;52.002;4.686;2022-10-03T13:08:40;102768.19;;;15.69;100.00
59337;BME280;45115;52.002;4.686;2022-10-03T13:11:20;102775.41;;;15.68;100.00
59337;BME280;45115;52.002;4.686;2022-10-03T13:14:03;102771.19;;;15.73;100.00
59337;BME280;45115;52.002;4.686;2022-10-03T13:16:33;102766.31;;;15.70;100.00
59337;BME280;45115;52.002;4.686;2022-10-03T13:19:07;102759.91;;;15.71;100.00
59337;BME280;45115;52.002;4.686;2022-10-03T13:21:54;102760.44;;;15.67;100.00
59337;BME280;45115;52.002;4.686;2022-10-03T13:24:34;102763.41;;;15.71;100.00
59337;BME280;45115;52.002;4.686;2022-10-03T13:27:25;102758.31;;;15.70;100.00
59337;BME280;45115;52.002;4.686;2022-10-03T13:30:03;102764.72;;;15.68;100.00
59337;BME280;45115;52.002;4.686;2022-10-03T13:32:34;102755.09;;;15.67;100.00
59337;BME280;45115;52.002;4.686;2022-10-03T13:35:28;102762.16;;;15.84;100.00
59337;BME280;45115;52.002;4.686;2022-10-03T13:38:39;102762.28;;;15.94;100.00
59337;BME280;45115;52.002;4.686;2022-10-03T13:41:17;102753.44;;;15.94;100.00
59337;BME280;45115;52.002;4.686;2022-10-03T13:43:55;102750.25;;;15.97;100.00
59337;BME280;45115;52.002;4.686;2022-10-03T13:46:28;102754.28;;;16.00;100.00
59337;BME280;45115;52.002;4.686;2022-10-03T13:48:58;102749.47;;;16.02;100.00
59337;BME280;45115;52.002;4.686;2022-10-03T13:51:34;102746.28;;;16.05;100.00
59337;BME280;45115;52.002;4.686;2022-10-03T13:54:06;102742.03;;;16.14;100.00
59337;BME280;45115;52.002;4.686;2022-10-03T13:56:53;102745.78;;;16.13;100.00
59337;BME280;45115;52.002;4.686;2022-10-03T13:59:39;102737.25;;;16.16;100.00
59337;BME280;45115;52.002;4.686;2022-10-03T14:05:30;102726.59;;;16.27;100.00
59337;BME280;45115;52.002;4.686;2022-10-03T14:08:08;102722.84;;;16.28;100.00
59337;BME280;45115;52.002;4.686;2022-10-03T14:10:56;102722.91;;;16.38;100.00
59337;BME280;45115;52.002;4.686;2022-10-03T14:13:32;102715.41;;;16.40;100.00
59337;BME280;45115;52.002;4.686;2022-10-03T14:16:11;102718.09;;;16.45;100.00
59337;BME280;45115;52.002;4.686;2022-10-03T14:18:50;102722.69;;;16.50;100.00
59337;BME280;45115;52.002;4.686;2022-10-03T14:21:37;102720.84;;;16.61;100.00
59337;BME280;45115;52.002;4.686;2022-10-03T14:24:24;102713.66;;;16.72;100.00
59337;BME280;45115;52.002;4.686;2022-10-03T14:26:57;102717.97;;;16.83;100.00
59337;BME280;45115;52.002;4.686;2022-10-03T14:29:33;102711.28;;;16.91;100.00
59337;BME280;45115;52.002;4.686;2022-10-03T14:32:06;102708.88;;;17.00;100.00
59337;BME280;45115;52.002;4.686;2022-10-03T14:34:48;102704.38;;;17.06;100.00
59337;BME280;45115;52.002;4.686;2022-10-03T14:37:23;102700.13;;;17.15;100.00
59337;BME280;45115;52.002;4.686;2022-10-03T14:40:03;102711.63;;;17.26;100.00
59337;BME280;45115;52.002;4.686;2022-10-03T14:42:42;102708.19;;;17.31;100.00
59337;BME280;45115;52.002;4.686;2022-10-03T14:45:17;102697.97;;;17.27;100.00
59337;BME280;45115;52.002;4.686;2022-10-03T14:47:48;102684.81;;;17.26;100.00
59337;BME280;45115;52.002;4.686;2022-10-03T14:50:18;102683.75;;;17.32;99.92
59337;BME280;45115;52.002;4.686;2022-10-03T14:52:50;102681.59;;;17.34;96.80
59337;BME280;45115;52.002;4.686;2022-10-03T14:55:20;102670.31;;;17.32;94.77
59337;BME280;45115;52.002;4.686;2022-10-03T14:57:51;102668.47;;;17.27;95.02
59337;BME280;45115;52.002;4.686;2022-10-03T15:00:35;102667.94;;;17.25;97.28
59337;BME280;45115;52.002;4.686;2022-10-03T15:03:21;102673.00;;;17.32;96.83
59337;BME280;45115;52.002;4.686;2022-10-03T15:05:55;102668.47;;;17.38;95.68
59337;BME280;45115;52.002;4.686;2022-10-03T15:08:28;102671.97;;;17.33;94.19
59337;BME280;45115;52.002;4.686;2022-10-03T15:10:57;102656.13;;;17.21;90.98
59337;BME280;45115;52.002;4.686;2022-10-03T15:13:26;102658.81;;;17.26;92.72
59337;BME280;45115;52.002;4.686;2022-10-03T15:15:55;102654.78;;;17.24;93.16
59337;BME280;45115;52.002;4.686;2022-10-03T15:18:22;102656.13;;;17.21;92.42
59337;BME280;45115;52.002;4.686;2022-10-03T15:20:52;102646.19;;;17.06;91.81
59337;BME280;45115;52.002;4.686;2022-10-03T15:23:21;102644.28;;;16.96;92.73
59337;BME280;45115;52.002;4.686;2022-10-03T15:25:52;102645.84;;;16.77;94.58
59337;BME280;45115;52.002;4.686;2022-10-03T15:28:21;102642.06;;;16.57;95.20
59337;BME280;45115;52.002;4.686;2022-10-03T15:30:51;102642.00;;;16.36;97.24
59337;BME280;45115;52.002;4.686;2022-10-03T15:33:26;102641.09;;;16.15;100.00
59337;BME280;45115;52.002;4.686;2022-10-03T15:35:58;102634.03;;;15.93;100.00
59337;BME280;45115;52.002;4.686;2022-10-03T15:38:32;102628.56;;;15.77;100.00
59337;BME280;45115;52.002;4.686;2022-10-03T15:41:06;102636.03;;;15.70;100.00
59337;BME280;45115;52.002;4.686;2022-10-03T15:43:36;102639.75;;;15.69;100.00
59337;BME280;45115;52.002;4.686;2022-10-03T15:46:12;102634.66;;;15.62;100.00
59337;BME280;45115;52.002;4.686;2022-10-03T15:48:41;102631.66;;;15.59;100.00
59337;BME280;45115;52.002;4.686;2022-10-03T15:51:15;102626.84;;;15.56;100.00
59337;BME280;45115;52.002;4.686;2022-10-03T15:53:47;102622.25;;;15.51;100.00
59337;BME280;45115;52.002;4.686;2022-10-03T15:56:21;102613.31;;;15.35;100.00
59337;BME280;45115;52.002;4.686;2022-10-03T15:58:52;102615.09;;;15.24;100.00
59337;BME280;45115;52.002;4.686;2022-10-03T16:01:21;102620.06;;;15.10;100.00
59337;BME280;45115;52.002;4.686;2022-10-03T16:03:53;102622.09;;;14.97;100.00
59337;BME280;45115;52.002;4.686;2022-10-03T16:06:22;102619.53;;;14.80;100.00
59337;BME280;45115;52.002;4.686;2022-10-03T16:08:55;102609.38;;;14.55;100.00
59337;BME280;45115;52.002;4.686;2022-10-03T16:11:27;102608.97;;;14.46;100.00
59337;BME280;45115;52.002;4.686;2022-10-03T16:14:10;102619.50;;;14.30;100.00
59337;BME280;45115;52.002;4.686;2022-10-03T16:16:40;102590.00;;;13.98;100.00
59337;BME280;45115;52.002;4.686;2022-10-03T16:19:24;102622.47;;;14.12;100.00
59337;BME280;45115;52.002;4.686;2022-10-03T16:21:57;102611.97;;;14.05;100.00
59337;BME280;45115;52.002;4.686;2022-10-03T16:24:31;102603.66;;;14.01;100.00